ROTAER D-AMDT 13/22 Ver mudanças

Teixeira de Freitas ( SNTF ) / TEIXEIRA DE FREITAS, BA 17 31 28S/039 40 06W
AD PUB Governo do Estado UTC-3 VFR L21 , L26 105 (344)

11 - L12 - ( 1460x30 ASPH 31/F/A/X/T L14 , L15 ) - L12 - 29

SBRE (CINDACTA 3)
CMB- [1] PF TF

RMK -

HORÁRIO DE FUNCIONAMENTO
  1. DLY 1000-2100. Demais horários O/R com antecedência de 6HR pelo TEL (71) 99670-9061 ou e-mail: ADMSNTF@SFRANCISCO.NET
INFORMAÇÃO METEOROLÓGICA FORNECIDA
  1. MET Estação de Radiodifusão Automática de Aeródromo (ERAA) FREQ 132.350MHZ.
  2. Usar código de localidade SNTF para acessar METAR/SPECI na REDEMET.
INFORMAÇÃO ADICIONAL
  1. OPS de LDG e PRKG O/R pelo TEL (71) 99670-9061 ou e-mail: ADMSNTF@SFRANCISCO.NET
  2. Contatos telefônicos: (71) 99670-9061 e (73) 99903-6387.
COMPL -
  • [1] DLY 1100-2000 O/R com MNM 03HR de antecedência pelo TEL (73) 99903-6387
TEMP (1)
INFOTEMP 0793R/22
SER COMBUSTIVEL AVGAS/QUEROSENE NEG AVBL

Duração: 13/05/22 16:23 a 11/06/22 21:00 UTC | Divulgação: 13/05/2022 16:23


Suplementos AIP (0)

NOTAM (0)

Nascer/Por do Sol

08:57

20:12


METAR

181300Z AUTO /////KT ///V/// //// // ///////// ///// Q////=

TAF

181000Z 1812/1824 35004KT 9999 FEW023 TX29/1818Z TN21/1823Z TEMPO 1812/1818 SHRA FEW023TCU TEMPO 1818/1824 4000 TSRA FEW030CB RMK PHH=


OPEA/Obstáculos


Cartas (0)


Rotas Preferenciais (0)